Monday, October 16, 2017, 6:03 PM EDT
Back to Local

KRDG, Reading Regional Airport

Location: Reading, PA, United States Lat: 40.367
Local Time: 6:03 PM EDT (22:03 GMT) Lon: -75.967
Time Zone: US/Eastern Elev: 344 ft

Show me the last for .
Show Decoded

2017-10-16 16:54 METAR KRDG 162054Z AUTO 34010G19KT 10SM CLR 15/03 A3010 RMK AO2 SLP197 T01500028
                 53010 =
2017-10-16 15:54 METAR KRDG 161954Z AUTO 32012G21KT 10SM CLR 15/04 A3009 RMK AO2 PK WND
                 34027/1914 SLP194 T01500039 =
2017-10-16 14:54 METAR KRDG 161854Z AUTO 35015KT 10SM SCT044 16/05 A3007 RMK AO2 SLP188 T01560050
                 =
2017-10-16 13:54 METAR KRDG 161754Z AUTO 33014G20KT 10SM BKN040 14/06 A3007 RMK AO2 SLP187
                 T01390061 10139 20122 58005 =
2017-10-16 12:54 METAR KRDG 161654Z AUTO 32009KT 10SM BKN037 13/06 A3008 RMK AO2 SLP192 T01280061
                 =
2017-10-16 11:54 METAR KRDG 161554Z AUTO 34016G20KT 10SM SCT039 13/06 A3008 RMK AO2 SLP189
                 T01280056 =
2017-10-16 10:54 METAR KRDG 161454Z AUTO 32016KT 10SM BKN039 13/06 A3009 RMK AO2 SLP192 T01280056
                 53029 =
2017-10-16 09:54 METAR KRDG 161354Z AUTO 34017G24KT 10SM OVC036 13/07 A3005 RMK AO2 SLP180
                 T01280067 =
2017-10-16 08:54 METAR KRDG 161254Z AUTO 34015KT 10SM FEW044 13/07 A3002 RMK AO2 SLP170 T01280072
                 $ =
2017-10-16 07:54 METAR KRDG 161154Z AUTO 34012KT 10SM CLR 13/08 A3000 RMK AO2 SLP163 60001 70004
                 T01330083 10178 20133 51031 $ =
2017-10-16 06:54 METAR KRDG 161054Z AUTO 32012G18KT 10SM CLR 14/09 A2996 RMK AO2 SLP148 T01440089
                 $ =
2017-10-16 05:54 METAR KRDG 160954Z AUTO 33015G20KT 10SM FEW037 FEW048 16/12 A2995 RMK AO2 SLP145
                 T01560117 $ =
2017-10-16 04:54 METAR KRDG 160854Z AUTO 30010KT 10SM CLR 16/14 A2991 RMK AO2 SLP130 60001
                 T01610144 53002 $ =
2017-10-16 03:54 METAR KRDG 160754Z AUTO 28009KT 10SM BKN120 16/14 A2990 RMK AO2 RAE13 SLP128
                 P0000 T01610144 $ =
2017-10-16 02:54 METAR KRDG 160654Z AUTO 24004KT 10SM -RA FEW039 OVC080 16/14 A2990 RMK AO2
                 RAE22B43 SLP129 P0001 T01610139 $ =
2017-10-16 01:54 METAR KRDG 160554Z AUTO 31007KT 10SM -RA OVC060 18/16 A2990 RMK AO2 RAB14E25B48
                 SLP128 P0000 60003 T01780156 10211 20178 51029 $ =
2017-10-16 00:54 METAR KRDG 160454Z AUTO 29008KT 10SM OVC040 19/18 A2987 RMK AO2 RAB0357E37
                 SLP117 P0000 T01940178 402220161 $ =
2017-10-15 23:54 METAR KRDG 160354Z AUTO 32010KT 10SM SCT039 BKN050 OVC060 19/18 A2985 RMK AO2
                 RAE52 SLP112 P0003 T01940183 $ =
2017-10-15 23:45 METAR KRDG 160345Z AUTO 32009KT 10SM -RA SCT016 BKN040 OVC060 19/19 A2985 RMK
                 AO2 P0003 T01940189 $ =
2017-10-15 23:18 METAR KRDG 160318Z AUTO 31009KT 9SM -RA BKN018 BKN029 OVC070 21/19 A2985 RMK AO2
                 P0000 T02060194 $ =
2017-10-15 22:54 METAR KRDG 160254Z 21009KT 10SM -RA BKN075 OVC100 21/19 A2981 RMK AO2 RAB49
                 SLP098 P0000 60000 T02060194 56005 $ =
2017-10-15 21:54 METAR KRDG 160154Z 17003KT 10SM FEW080 19/19 A2982 RMK AO2 SLP099 T01940189 $ =
2017-10-15 20:54 METAR KRDG 160054Z VRB03KT 10SM FEW015 19/19 A2982 RMK AO2 SLP100 T01940189 $ =
2017-10-15 20:41 METAR KRDG 160041Z VRB03KT 10SM SCT015 20/19 A2982 RMK AO2 T02000189 $ =
2017-10-15 19:54 METAR KRDG 152354Z VRB04KT 10SM OVC015 20/18 A2983 RMK AO2 SLP103 T02000183
                 10222 20200 56012 $ =
2017-10-15 18:54 METAR KRDG 152254Z 16004KT 10SM OVC016 21/18 A2984 RMK AO2 SLP108 T02060183 $ =
2017-10-15 18:24 METAR KRDG 152224Z 17006KT 10SM BKN017 21/18 A2984 RMK AO2 T02060183 $ =

Support USWX by starting your Amazon purchase here.